sensor_id;sensor_type;location;lat;lon;timestamp;pressure;altitude;pressure_sealevel;temperature;humidity
76434;BME280;65265;53.200;6.080;2022-11-20T00:02:01;101363.34;;;18.52;42.70
76434;BME280;65265;53.200;6.080;2022-11-20T00:04:28;101359.88;;;18.51;42.93
76434;BME280;65265;53.200;6.080;2022-11-20T00:06:54;101358.13;;;18.49;42.81
76434;BME280;65265;53.200;6.080;2022-11-20T00:09:21;101355.50;;;18.47;43.08
76434;BME280;65265;53.200;6.080;2022-11-20T00:11:47;101356.38;;;18.46;42.82
76434;BME280;65265;53.200;6.080;2022-11-20T00:14:13;101355.50;;;18.44;42.57
76434;BME280;65265;53.200;6.080;2022-11-20T00:16:40;101345.03;;;18.41;42.82
76434;BME280;65265;53.200;6.080;2022-11-20T00:19:09;101342.44;;;18.38;42.67
76434;BME280;65265;53.200;6.080;2022-11-20T00:21:35;101348.50;;;18.39;42.91
76434;BME280;65265;53.200;6.080;2022-11-20T00:24:02;101346.75;;;18.36;42.78
76434;BME280;65265;53.200;6.080;2022-11-20T00:26:29;101343.25;;;18.36;43.04
76434;BME280;65265;53.200;6.080;2022-11-20T00:28:57;101346.72;;;18.33;43.19
76434;BME280;65265;53.200;6.080;2022-11-20T00:31:24;101342.38;;;18.32;43.17
76434;BME280;65265;53.200;6.080;2022-11-20T00:33:50;101342.34;;;18.31;42.75
76434;BME280;65265;53.200;6.080;2022-11-20T00:36:20;101344.91;;;18.29;43.09
76434;BME280;65265;53.200;6.080;2022-11-20T00:38:50;101341.44;;;18.27;42.99
76434;BME280;65265;53.200;6.080;2022-11-20T00:41:17;101338.00;;;18.27;42.85
76434;BME280;65265;53.200;6.080;2022-11-20T00:43:43;101341.41;;;18.24;42.66
76434;BME280;65265;53.200;6.080;2022-11-20T00:46:13;101337.94;;;18.22;42.82
76434;BME280;65265;53.200;6.080;2022-11-20T00:48:40;101336.22;;;18.21;42.87
76434;BME280;65265;53.200;6.080;2022-11-20T00:51:07;101340.47;;;18.19;42.97
76434;BME280;65265;53.200;6.080;2022-11-20T00:53:35;101331.84;;;18.19;42.51
76434;BME280;65265;53.200;6.080;2022-11-20T00:56:03;101331.81;;;18.16;42.96
76434;BME280;65265;53.200;6.080;2022-11-20T00:58:31;101341.31;;;18.15;42.55
76434;BME280;65265;53.200;6.080;2022-11-20T01:01:02;101339.53;;;18.13;42.73
76434;BME280;65265;53.200;6.080;2022-11-20T01:03:30;101335.22;;;18.12;42.95
76434;BME280;65265;53.200;6.080;2022-11-20T01:05:59;101329.16;;;18.12;43.03
76434;BME280;65265;53.200;6.080;2022-11-20T01:08:29;101333.47;;;18.10;42.76
76434;BME280;65265;53.200;6.080;2022-11-20T01:11:00;101327.38;;;18.08;42.59
76434;BME280;65265;53.200;6.080;2022-11-20T01:13:26;101323.91;;;18.06;43.01
76434;BME280;65265;53.200;6.080;2022-11-20T01:16:07;101326.50;;;18.04;42.73
76434;BME280;65265;53.200;6.080;2022-11-20T01:18:34;101335.97;;;18.04;42.48
76434;BME280;65265;53.200;6.080;2022-11-20T01:21:02;101322.13;;;18.02;42.71
76434;BME280;65265;53.200;6.080;2022-11-20T01:23:31;101318.66;;;18.00;43.03
76434;BME280;65265;53.200;6.080;2022-11-20T01:26:00;101320.38;;;17.99;42.96
76434;BME280;65265;53.200;6.080;2022-11-20T01:28:28;101317.75;;;17.96;42.49
76434;BME280;65265;53.200;6.080;2022-11-20T01:30:54;101317.72;;;17.95;42.63
76434;BME280;65265;53.200;6.080;2022-11-20T01:33:21;101318.56;;;17.94;42.75
76434;BME280;65265;53.200;6.080;2022-11-20T01:35:47;101316.84;;;17.93;42.50
76434;BME280;65265;53.200;6.080;2022-11-20T01:38:14;101320.25;;;17.90;43.07
76434;BME280;65265;53.200;6.080;2022-11-20T01:40:41;101316.81;;;17.90;42.55
76434;BME280;65265;53.200;6.080;2022-11-20T01:43:14;101315.91;;;17.88;42.65
76434;BME280;65265;53.200;6.080;2022-11-20T01:45:57;101309.81;;;17.86;42.67
76434;BME280;65265;53.200;6.080;2022-11-20T01:48:28;101305.47;;;17.85;42.76
76434;BME280;65265;53.200;6.080;2022-11-20T01:50:56;101306.34;;;17.84;42.73
76434;BME280;65265;53.200;6.080;2022-11-20T01:53:26;101301.16;;;17.82;42.80
76434;BME280;65265;53.200;6.080;2022-11-20T01:55:57;101299.38;;;17.80;42.72
76434;BME280;65265;53.200;6.080;2022-11-20T01:58:28;101301.97;;;17.80;42.85
76434;BME280;65265;53.200;6.080;2022-11-20T02:00:56;101298.50;;;17.78;42.67
76434;BME280;65265;53.200;6.080;2022-11-20T02:03:23;101289.78;;;17.76;42.59
76434;BME280;65265;53.200;6.080;2022-11-20T02:05:51;101285.44;;;17.75;42.51
76434;BME280;65265;53.200;6.080;2022-11-20T02:08:23;101290.63;;;17.73;42.83
76434;BME280;65265;53.200;6.080;2022-11-20T02:10:49;101286.28;;;17.71;42.88
76434;BME280;65265;53.200;6.080;2022-11-20T02:13:16;101284.53;;;17.70;42.55
76434;BME280;65265;53.200;6.080;2022-11-20T02:16:02;101273.28;;;17.68;42.92
76434;BME280;65265;53.200;6.080;2022-11-20T02:18:30;101285.38;;;17.69;43.01
76434;BME280;65265;53.200;6.080;2022-11-20T02:21:00;101272.38;;;17.66;42.46
76434;BME280;65265;53.200;6.080;2022-11-20T02:23:31;101276.69;;;17.65;42.51
76434;BME280;65265;53.200;6.080;2022-11-20T02:26:00;101268.00;;;17.62;43.03
76434;BME280;65265;53.200;6.080;2022-11-20T02:28:28;101265.41;;;17.62;42.76
76434;BME280;65265;53.200;6.080;2022-11-20T02:30:54;101263.66;;;17.61;42.96
76434;BME280;65265;53.200;6.080;2022-11-20T02:33:21;101256.75;;;17.60;42.51
76434;BME280;65265;53.200;6.080;2022-11-20T02:35:47;101258.44;;;17.59;42.81
76434;BME280;65265;53.200;6.080;2022-11-20T02:38:14;101257.59;;;17.59;43.03
76434;BME280;65265;53.200;6.080;2022-11-20T02:40:41;101254.13;;;17.57;42.54
76434;BME280;65265;53.200;6.080;2022-11-20T02:43:09;101255.84;;;17.55;43.00
76434;BME280;65265;53.200;6.080;2022-11-20T02:45:36;101254.09;;;17.55;42.57
76434;BME280;65265;53.200;6.080;2022-11-20T02:48:03;101255.84;;;17.56;42.76
76434;BME280;65265;53.200;6.080;2022-11-20T02:50:29;101247.19;;;17.56;42.95
76434;BME280;65265;53.200;6.080;2022-11-20T02:52:56;101248.88;;;17.54;42.96
76434;BME280;65265;53.200;6.080;2022-11-20T02:55:22;101252.31;;;17.53;43.01
76434;BME280;65265;53.200;6.080;2022-11-20T02:57:49;101248.00;;;17.52;43.04
76434;BME280;65265;53.200;6.080;2022-11-20T03:00:17;101245.41;;;17.52;42.59
76434;BME280;65265;53.200;6.080;2022-11-20T03:02:43;101251.47;;;17.54;42.59
76434;BME280;65265;53.200;6.080;2022-11-20T03:05:10;101254.91;;;17.53;42.51
76434;BME280;65265;53.200;6.080;2022-11-20T03:07:36;101250.59;;;17.52;42.52
76434;BME280;65265;53.200;6.080;2022-11-20T03:10:03;101245.41;;;17.52;42.86
76434;BME280;65265;53.200;6.080;2022-11-20T03:12:30;101244.53;;;17.50;42.80
76434;BME280;65265;53.200;6.080;2022-11-20T03:14:56;101241.94;;;17.50;42.87
76434;BME280;65265;53.200;6.080;2022-11-20T03:17:24;101241.94;;;17.50;42.79
76434;BME280;65265;53.200;6.080;2022-11-20T03:19:50;101249.72;;;17.51;42.49
76434;BME280;65265;53.200;6.080;2022-11-20T03:22:17;101241.94;;;17.50;42.97
76434;BME280;65265;53.200;6.080;2022-11-20T03:24:43;101238.50;;;17.49;42.44
76434;BME280;65265;53.200;6.080;2022-11-20T03:27:10;101234.13;;;17.48;42.84
76434;BME280;65265;53.200;6.080;2022-11-20T03:29:36;101237.63;;;17.50;42.77
76434;BME280;65265;53.200;6.080;2022-11-20T03:32:03;101233.28;;;17.51;42.44
76434;BME280;65265;53.200;6.080;2022-11-20T03:34:30;101231.59;;;17.51;42.77
76434;BME280;65265;53.200;6.080;2022-11-20T03:36:57;101221.19;;;17.50;42.63
76434;BME280;65265;53.200;6.080;2022-11-20T03:39:23;101222.91;;;17.48;42.43
76434;BME280;65265;53.200;6.080;2022-11-20T03:41:50;101212.50;;;17.45;42.17
76434;BME280;65265;53.200;6.080;2022-11-20T03:44:16;101216.91;;;17.50;42.61
76434;BME280;65265;53.200;6.080;2022-11-20T03:46:43;101212.56;;;17.51;42.26
76434;BME280;65265;53.200;6.080;2022-11-20T03:49:09;101212.56;;;17.51;42.53
76434;BME280;65265;53.200;6.080;2022-11-20T03:51:37;101202.16;;;17.48;42.55
76434;BME280;65265;53.200;6.080;2022-11-20T03:54:08;101200.44;;;17.47;42.75
76434;BME280;65265;53.200;6.080;2022-11-20T03:56:37;101190.94;;;17.49;42.68
76434;BME280;65265;53.200;6.080;2022-11-20T03:59:04;101186.63;;;17.51;42.41
76434;BME280;65265;53.200;6.080;2022-11-20T04:01:32;101184.91;;;17.50;42.70
76434;BME280;65265;53.200;6.080;2022-11-20T04:04:00;101186.66;;;17.49;42.50
76434;BME280;65265;53.200;6.080;2022-11-20T04:06:28;101176.25;;;17.48;42.70
76434;BME280;65265;53.200;6.080;2022-11-20T04:08:57;101172.81;;;17.49;42.52
76434;BME280;65265;53.200;6.080;2022-11-20T04:11:25;101173.69;;;17.51;42.20
76434;BME280;65265;53.200;6.080;2022-11-20T04:13:54;101168.50;;;17.49;42.34
76434;BME280;65265;53.200;6.080;2022-11-20T04:16:21;101160.72;;;17.51;42.19
76434;BME280;65265;53.200;6.080;2022-11-20T04:18:51;101156.38;;;17.47;42.55
76434;BME280;65265;53.200;6.080;2022-11-20T04:21:18;101160.72;;;17.49;42.14
76434;BME280;65265;53.200;6.080;2022-11-20T04:23:44;101153.81;;;17.50;42.16
76434;BME280;65265;53.200;6.080;2022-11-20T04:26:12;101151.22;;;17.50;42.54
76434;BME280;65265;53.200;6.080;2022-11-20T04:28:39;101151.25;;;17.51;42.46
76434;BME280;65265;53.200;6.080;2022-11-20T04:31:07;101156.41;;;17.50;42.32
76434;BME280;65265;53.200;6.080;2022-11-20T04:33:34;101146.00;;;17.47;41.90
76434;BME280;65265;53.200;6.080;2022-11-20T04:36:05;101152.94;;;17.51;42.28
76434;BME280;65265;53.200;6.080;2022-11-20T04:38:32;101156.44;;;17.51;42.11
76434;BME280;65265;53.200;6.080;2022-11-20T04:41:00;101159.88;;;17.52;42.22
76434;BME280;65265;53.200;6.080;2022-11-20T04:43:28;101153.81;;;17.53;42.66
76434;BME280;65265;53.200;6.080;2022-11-20T04:45:55;101153.91;;;17.59;41.87
76434;BME280;65265;53.200;6.080;2022-11-20T04:48:23;101148.78;;;17.65;42.23
76434;BME280;65265;53.200;6.080;2022-11-20T04:50:49;101140.22;;;17.75;41.78
76434;BME280;65265;53.200;6.080;2022-11-20T04:53:16;101136.06;;;17.84;42.19
76434;BME280;65265;53.200;6.080;2022-11-20T04:55:43;101134.41;;;17.94;41.95
76434;BME280;65265;53.200;6.080;2022-11-20T04:58:09;101128.44;;;18.01;41.79
76434;BME280;65265;53.200;6.080;2022-11-20T05:00:37;101136.28;;;18.11;41.64
76434;BME280;65265;53.200;6.080;2022-11-20T05:03:04;101132.03;;;18.17;41.95
76434;BME280;65265;53.200;6.080;2022-11-20T05:05:30;101130.34;;;18.25;41.81
76434;BME280;65265;53.200;6.080;2022-11-20T05:07:57;101134.75;;;18.35;41.48
76434;BME280;65265;53.200;6.080;2022-11-20T05:10:24;101134.81;;;18.43;41.52
76434;BME280;65265;53.200;6.080;2022-11-20T05:12:51;101130.53;;;18.52;41.41
76434;BME280;65265;53.200;6.080;2022-11-20T05:15:17;101121.91;;;18.58;41.30
76434;BME280;65265;53.200;6.080;2022-11-20T05:17:48;101116.81;;;18.64;41.29
76434;BME280;65265;53.200;6.080;2022-11-20T05:20:14;101121.22;;;18.74;41.07
76434;BME280;65265;53.200;6.080;2022-11-20T05:22:41;101116.91;;;18.83;40.98
76434;BME280;65265;53.200;6.080;2022-11-20T05:25:08;101113.50;;;18.90;40.72
76434;BME280;65265;53.200;6.080;2022-11-20T05:27:35;101116.97;;;18.95;40.76
76434;BME280;65265;53.200;6.080;2022-11-20T05:30:01;101115.28;;;19.03;40.70
76434;BME280;65265;53.200;6.080;2022-11-20T05:32:28;101118.75;;;19.08;40.67
76434;BME280;65265;53.200;6.080;2022-11-20T05:34:56;101117.94;;;19.17;40.79
76434;BME280;65265;53.200;6.080;2022-11-20T05:37:22;101115.38;;;19.21;40.51
76434;BME280;65265;53.200;6.080;2022-11-20T05:39:49;101116.25;;;19.31;40.82
76434;BME280;65265;53.200;6.080;2022-11-20T05:42:15;101114.53;;;19.34;40.79
76434;BME280;65265;53.200;6.080;2022-11-20T05:44:58;101112.81;;;19.41;40.31
76434;BME280;65265;53.200;6.080;2022-11-20T05:47:24;101105.00;;;19.42;40.57
76434;BME280;65265;53.200;6.080;2022-11-20T05:49:51;101104.19;;;19.49;40.55
76434;BME280;65265;53.200;6.080;2022-11-20T05:52:19;101109.41;;;19.57;40.47
76434;BME280;65265;53.200;6.080;2022-11-20T05:54:46;101110.28;;;19.63;40.35
76434;BME280;65265;53.200;6.080;2022-11-20T05:57:12;101106.84;;;19.67;39.86
76434;BME280;65265;53.200;6.080;2022-11-20T05:59:39;101112.91;;;19.74;40.40
76434;BME280;65265;53.200;6.080;2022-11-20T06:02:05;101119.00;;;19.85;40.13
76434;BME280;65265;53.200;6.080;2022-11-20T06:04:31;101119.00;;;19.88;39.82
76434;BME280;65265;53.200;6.080;2022-11-20T06:06:58;101122.47;;;19.90;40.05
76434;BME280;65265;53.200;6.080;2022-11-20T06:09:26;101125.09;;;19.96;39.95
76434;BME280;65265;53.200;6.080;2022-11-20T06:11:52;101117.25;;;20.02;39.50
76434;BME280;65265;53.200;6.080;2022-11-20T06:14:18;101122.47;;;20.06;39.95
76434;BME280;65265;53.200;6.080;2022-11-20T06:16:45;101114.66;;;20.09;39.53
76434;BME280;65265;53.200;6.080;2022-11-20T06:19:11;101118.16;;;20.16;39.74
76434;BME280;65265;53.200;6.080;2022-11-20T06:21:38;101114.66;;;20.18;39.46
76434;BME280;65265;53.200;6.080;2022-11-20T06:24:05;101110.31;;;20.22;39.73
76434;BME280;65265;53.200;6.080;2022-11-20T06:26:33;101105.16;;;20.26;39.72
76434;BME280;65265;53.200;6.080;2022-11-20T06:28:59;101099.94;;;20.32;39.51
76434;BME280;65265;53.200;6.080;2022-11-20T06:31:26;101107.72;;;20.37;39.50
76434;BME280;65265;53.200;6.080;2022-11-20T06:33:52;101104.25;;;20.39;39.25
76434;BME280;65265;53.200;6.080;2022-11-20T06:36:21;101096.44;;;20.42;39.15
76434;BME280;65265;53.200;6.080;2022-11-20T06:38:48;101092.09;;;20.46;39.28
76434;BME280;65265;53.200;6.080;2022-11-20T06:41:16;101096.44;;;20.53;39.46
76434;BME280;65265;53.200;6.080;2022-11-20T06:43:44;101091.22;;;20.51;39.05
76434;BME280;65265;53.200;6.080;2022-11-20T06:46:11;101098.16;;;20.55;39.11
76434;BME280;65265;53.200;6.080;2022-11-20T06:48:38;101100.75;;;20.61;39.28
76434;BME280;65265;53.200;6.080;2022-11-20T06:51:05;101110.28;;;20.62;38.94
76434;BME280;65265;53.200;6.080;2022-11-20T06:53:32;101105.94;;;20.61;39.00
76434;BME280;65265;53.200;6.080;2022-11-20T06:55:59;101109.41;;;20.69;38.68
76434;BME280;65265;53.200;6.080;2022-11-20T06:58:26;101115.47;;;20.71;39.20
76434;BME280;65265;53.200;6.080;2022-11-20T07:00:57;101119.81;;;20.73;39.13
76434;BME280;65265;53.200;6.080;2022-11-20T07:03:24;101105.03;;;20.74;39.12
76434;BME280;65265;53.200;6.080;2022-11-20T07:05:50;101101.56;;;20.75;38.99
76434;BME280;65265;53.200;6.080;2022-11-20T07:08:17;101110.28;;;20.77;38.48
76434;BME280;65265;53.200;6.080;2022-11-20T07:10:43;101110.25;;;20.78;38.71
76434;BME280;65265;53.200;6.080;2022-11-20T07:13:10;101108.53;;;20.79;38.78
76434;BME280;65265;53.200;6.080;2022-11-20T07:15:36;101108.50;;;20.82;38.65
76434;BME280;65265;53.200;6.080;2022-11-20T07:18:04;101104.16;;;20.84;38.92
76434;BME280;65265;53.200;6.080;2022-11-20T07:20:31;101108.50;;;20.88;38.56
76434;BME280;65265;53.200;6.080;2022-11-20T07:22:59;101098.91;;;20.88;38.98
76434;BME280;65265;53.200;6.080;2022-11-20T07:25:27;101099.81;;;20.89;38.53
76434;BME280;65265;53.200;6.080;2022-11-20T07:27:56;101102.38;;;20.92;38.79
76434;BME280;65265;53.200;6.080;2022-11-20T07:30:23;101101.53;;;20.87;38.84
76434;BME280;65265;53.200;6.080;2022-11-20T07:32:51;101096.38;;;20.72;39.36
76434;BME280;65265;53.200;6.080;2022-11-20T07:35:19;101099.88;;;20.59;39.46
76434;BME280;65265;53.200;6.080;2022-11-20T07:37:46;101100.75;;;20.48;39.34
76434;BME280;65265;53.200;6.080;2022-11-20T07:40:14;101075.63;;;20.36;39.43
76434;BME280;65265;53.200;6.080;2022-11-20T07:42:47;101079.97;;;20.39;40.15
76434;BME280;65265;53.200;6.080;2022-11-20T07:45:14;101075.63;;;20.36;39.88
76434;BME280;65265;53.200;6.080;2022-11-20T07:47:40;101084.31;;;20.38;40.89
76434;BME280;65265;53.200;6.080;2022-11-20T07:50:07;101069.56;;;20.39;41.29
76434;BME280;65265;53.200;6.080;2022-11-20T07:52:35;101081.72;;;20.35;40.71
76434;BME280;65265;53.200;6.080;2022-11-20T07:55:02;101071.28;;;20.38;39.78
76434;BME280;65265;53.200;6.080;2022-11-20T07:57:28;101076.47;;;20.41;39.50
76434;BME280;65265;53.200;6.080;2022-11-20T07:59:55;101070.41;;;20.45;39.36
76434;BME280;65265;53.200;6.080;2022-11-20T08:02:21;101067.78;;;20.48;39.66
76434;BME280;65265;53.200;6.080;2022-11-20T08:04:48;101077.31;;;20.52;39.22
76434;BME280;65265;53.200;6.080;2022-11-20T08:07:14;101068.63;;;20.53;39.28
76434;BME280;65265;53.200;6.080;2022-11-20T08:09:42;101075.59;;;20.54;38.86
76434;BME280;65265;53.200;6.080;2022-11-20T08:12:10;101076.44;;;20.55;38.91
76434;BME280;65265;53.200;6.080;2022-11-20T08:15:00;101070.41;;;20.50;39.19
76434;BME280;65265;53.200;6.080;2022-11-20T08:17:26;101079.91;;;20.52;39.00
76434;BME280;65265;53.200;6.080;2022-11-20T08:19:53;101081.66;;;20.50;38.93
76434;BME280;65265;53.200;6.080;2022-11-20T08:22:19;101082.53;;;20.49;38.84
76434;BME280;65265;53.200;6.080;2022-11-20T08:24:47;101076.47;;;20.46;38.75
76434;BME280;65265;53.200;6.080;2022-11-20T08:27:14;101075.63;;;20.45;38.94
76434;BME280;65265;53.200;6.080;2022-11-20T08:29:40;101071.25;;;20.41;39.09
76434;BME280;65265;53.200;6.080;2022-11-20T08:32:07;101068.66;;;20.37;39.04
76434;BME280;65265;53.200;6.080;2022-11-20T08:34:33;101078.22;;;20.30;39.20
76434;BME280;65265;53.200;6.080;2022-11-20T08:37:01;101071.28;;;20.29;38.74
76434;BME280;65265;53.200;6.080;2022-11-20T08:39:27;101073.91;;;20.28;39.00
76434;BME280;65265;53.200;6.080;2022-11-20T08:41:55;101074.78;;;20.30;39.00
76434;BME280;65265;53.200;6.080;2022-11-20T08:44:22;101070.44;;;20.27;39.27
76434;BME280;65265;53.200;6.080;2022-11-20T08:46:48;101076.50;;;20.26;39.17
76434;BME280;65265;53.200;6.080;2022-11-20T08:49:15;101074.78;;;20.25;39.07
76434;BME280;65265;53.200;6.080;2022-11-20T08:51:42;101078.25;;;20.24;38.90
76434;BME280;65265;53.200;6.080;2022-11-20T08:54:08;101082.56;;;20.22;38.73
76434;BME280;65265;53.200;6.080;2022-11-20T08:56:35;101080.81;;;20.18;39.26
76434;BME280;65265;53.200;6.080;2022-11-20T08:59:03;101091.25;;;20.21;38.78
76434;BME280;65265;53.200;6.080;2022-11-20T09:01:29;101081.69;;;20.20;39.13
76434;BME280;65265;53.200;6.080;2022-11-20T09:03:56;101092.09;;;20.17;39.15
76434;BME280;65265;53.200;6.080;2022-11-20T09:06:23;101086.91;;;20.13;39.07
76434;BME280;65265;53.200;6.080;2022-11-20T09:08:51;101088.63;;;20.14;39.25
76434;BME280;65265;53.200;6.080;2022-11-20T09:11:18;101084.31;;;20.14;39.42
76434;BME280;65265;53.200;6.080;2022-11-20T09:13:44;101082.56;;;20.13;39.24
76434;BME280;65265;53.200;6.080;2022-11-20T09:16:12;101076.50;;;20.10;39.10
76434;BME280;65265;53.200;6.080;2022-11-20T09:18:38;101079.97;;;20.10;39.21
76434;BME280;65265;53.200;6.080;2022-11-20T09:21:06;101080.84;;;20.12;39.36
76434;BME280;65265;53.200;6.080;2022-11-20T09:23:34;101076.50;;;20.10;39.07
76434;BME280;65265;53.200;6.080;2022-11-20T09:26:02;101073.88;;;20.08;38.97
76434;BME280;65265;53.200;6.080;2022-11-20T09:28:29;101063.47;;;20.04;39.26
76434;BME280;65265;53.200;6.080;2022-11-20T09:30:56;101072.16;;;20.04;39.32
76434;BME280;65265;53.200;6.080;2022-11-20T09:33:23;101077.38;;;20.06;39.43
76434;BME280;65265;53.200;6.080;2022-11-20T09:35:50;101075.63;;;20.03;39.05
76434;BME280;65265;53.200;6.080;2022-11-20T09:38:16;101071.31;;;19.99;39.72
76434;BME280;65265;53.200;6.080;2022-11-20T09:40:46;101072.16;;;19.95;39.44
76434;BME280;65265;53.200;6.080;2022-11-20T09:43:18;101071.28;;;19.96;39.76
76434;BME280;65265;53.200;6.080;2022-11-20T09:46:01;101069.56;;;19.97;39.44
76434;BME280;65265;53.200;6.080;2022-11-20T09:48:39;101072.16;;;19.98;39.41
76434;BME280;65265;53.200;6.080;2022-11-20T09:51:16;101062.63;;;19.96;39.09
76434;BME280;65265;53.200;6.080;2022-11-20T09:53:56;101046.13;;;19.95;39.63
76434;BME280;65265;53.200;6.080;2022-11-20T09:56:28;101052.19;;;19.97;39.30
76434;BME280;65265;53.200;6.080;2022-11-20T09:58:57;101047.88;;;19.96;39.57
76434;BME280;65265;53.200;6.080;2022-11-20T10:01:29;101053.06;;;19.96;39.30
76434;BME280;65265;53.200;6.080;2022-11-20T10:04:01;101042.69;;;19.99;39.43
76434;BME280;65265;53.200;6.080;2022-11-20T10:06:30;101045.28;;;19.98;39.46
76434;BME280;65265;53.200;6.080;2022-11-20T10:09:18;101047.03;;;19.96;39.15
76434;BME280;65265;53.200;6.080;2022-11-20T10:11:48;101047.88;;;19.96;39.18
76434;BME280;65265;53.200;6.080;2022-11-20T10:14:25;101039.22;;;20.00;39.08
76434;BME280;65265;53.200;6.080;2022-11-20T10:17:03;101025.31;;;19.98;39.35
76434;BME280;65265;53.200;6.080;2022-11-20T10:19:47;101034.00;;;20.00;39.37
76434;BME280;65265;53.200;6.080;2022-11-20T10:22:34;101034.00;;;20.03;39.01
76434;BME280;65265;53.200;6.080;2022-11-20T10:25:11;101033.13;;;20.03;39.18
76434;BME280;65265;53.200;6.080;2022-11-20T10:27:54;101033.13;;;20.03;39.08
76434;BME280;65265;53.200;6.080;2022-11-20T10:30:22;101040.06;;;20.04;39.25
76434;BME280;65265;53.200;6.080;2022-11-20T10:32:52;101037.47;;;20.05;38.81
76434;BME280;65265;53.200;6.080;2022-11-20T10:35:24;101036.59;;;20.05;39.15
76434;BME280;65265;53.200;6.080;2022-11-20T10:37:55;101027.06;;;20.02;39.14
76434;BME280;65265;53.200;6.080;2022-11-20T10:40:28;101014.91;;;20.04;39.54
76434;BME280;65265;53.200;6.080;2022-11-20T10:42:59;101012.28;;;20.12;40.55
76434;BME280;65265;53.200;6.080;2022-11-20T10:45:39;101008.84;;;20.11;40.62
76434;BME280;65265;53.200;6.080;2022-11-20T10:48:14;101001.00;;;20.17;40.83
76434;BME280;65265;53.200;6.080;2022-11-20T10:50:59;101000.13;;;20.18;40.81
76434;BME280;65265;53.200;6.080;2022-11-20T10:53:42;100992.31;;;20.18;40.38
76434;BME280;65265;53.200;6.080;2022-11-20T10:56:16;100985.38;;;20.22;40.41
76434;BME280;65265;53.200;6.080;2022-11-20T10:58:52;100994.94;;;20.26;40.68
76434;BME280;65265;53.200;6.080;2022-11-20T11:01:21;100994.09;;;20.27;40.51
76434;BME280;65265;53.200;6.080;2022-11-20T11:03:48;100986.25;;;20.30;40.67
76434;BME280;65265;53.200;6.080;2022-11-20T11:06:21;100981.03;;;20.31;40.47
76434;BME280;65265;53.200;6.080;2022-11-20T11:08:53;100986.25;;;20.34;40.56
76434;BME280;65265;53.200;6.080;2022-11-20T11:11:24;100978.41;;;20.36;40.38
76434;BME280;65265;53.200;6.080;2022-11-20T11:13:52;100967.13;;;20.37;39.95
76434;BME280;65265;53.200;6.080;2022-11-20T11:16:23;100978.41;;;20.43;40.63
76434;BME280;65265;53.200;6.080;2022-11-20T11:18:49;100971.44;;;20.45;40.58
76434;BME280;65265;53.200;6.080;2022-11-20T11:21:23;100967.97;;;20.49;40.61
76434;BME280;65265;53.200;6.080;2022-11-20T11:23:58;100967.94;;;20.52;40.40
76434;BME280;65265;53.200;6.080;2022-11-20T11:26:25;100962.72;;;20.55;40.41
76434;BME280;65265;53.200;6.080;2022-11-20T11:28:56;100957.50;;;20.57;40.38
76434;BME280;65265;53.200;6.080;2022-11-20T11:31:24;100956.63;;;20.59;39.90
76434;BME280;65265;53.200;6.080;2022-11-20T11:33:50;100945.34;;;20.60;39.91
76434;BME280;65265;53.200;6.080;2022-11-20T11:36:19;100937.50;;;20.63;39.89
76434;BME280;65265;53.200;6.080;2022-11-20T11:38:51;100934.91;;;20.65;40.24
76434;BME280;65265;53.200;6.080;2022-11-20T11:41:20;100928.81;;;20.66;40.36
76434;BME280;65265;53.200;6.080;2022-11-20T11:43:51;100927.97;;;20.65;40.16
76434;BME280;65265;53.200;6.080;2022-11-20T11:46:35;100917.53;;;20.65;40.41
76434;BME280;65265;53.200;6.080;2022-11-20T11:49:15;100911.44;;;20.66;40.22
76434;BME280;65265;53.200;6.080;2022-11-20T11:51:52;100903.63;;;20.69;39.58
76434;BME280;65265;53.200;6.080;2022-11-20T11:54:24;100901.88;;;20.68;39.66
76434;BME280;65265;53.200;6.080;2022-11-20T11:56:53;100895.84;;;20.59;39.42
76434;BME280;65265;53.200;6.080;2022-11-20T11:59:25;100895.03;;;20.55;39.31
76434;BME280;65265;53.200;6.080;2022-11-20T12:01:55;100893.28;;;20.51;39.11
76434;BME280;65265;53.200;6.080;2022-11-20T12:04:37;100896.81;;;20.44;39.56
76434;BME280;65265;53.200;6.080;2022-11-20T12:07:10;100884.69;;;20.37;39.34
76434;BME280;65265;53.200;6.080;2022-11-20T12:09:43;100900.34;;;20.34;39.58
76434;BME280;65265;53.200;6.080;2022-11-20T12:12:16;100898.63;;;20.27;39.58
76434;BME280;65265;53.200;6.080;2022-11-20T12:14:46;100902.09;;;20.23;39.82
76434;BME280;65265;53.200;6.080;2022-11-20T12:17:15;100898.59;;;20.18;39.43
76434;BME280;65265;53.200;6.080;2022-11-20T12:19:43;100903.00;;;20.09;39.09
76434;BME280;65265;53.200;6.080;2022-11-20T12:22:19;100895.22;;;20.01;38.81
76434;BME280;65265;53.200;6.080;2022-11-20T12:24:55;100884.84;;;19.92;37.68
76434;BME280;65265;53.200;6.080;2022-11-20T12:27:49;100878.81;;;19.83;35.82
76434;BME280;65265;53.200;6.080;2022-11-20T12:30:20;100875.34;;;19.75;33.81
76434;BME280;65265;53.200;6.080;2022-11-20T12:33:14;100875.34;;;19.64;32.78
76434;BME280;65265;53.200;6.080;2022-11-20T12:36:07;100877.97;;;19.52;34.46
76434;BME280;65265;53.200;6.080;2022-11-20T12:38:48;100874.50;;;19.53;35.27
76434;BME280;65265;53.200;6.080;2022-11-20T12:41:31;100866.72;;;19.56;35.11
76434;BME280;65265;53.200;6.080;2022-11-20T12:44:30;100858.03;;;19.60;35.51
76434;BME280;65265;53.200;6.080;2022-11-20T12:47:24;100840.69;;;19.64;35.77
76434;BME280;65265;53.200;6.080;2022-11-20T12:50:01;100838.94;;;19.66;35.88
76434;BME280;65265;53.200;6.080;2022-11-20T12:52:39;100828.53;;;19.64;35.95
76434;BME280;65265;53.200;6.080;2022-11-20T12:55:20;100832.84;;;19.70;36.60
76434;BME280;65265;53.200;6.080;2022-11-20T12:57:52;100827.66;;;19.71;36.35
76434;BME280;65265;53.200;6.080;2022-11-20T13:00:21;100824.19;;;19.72;36.88
76434;BME280;65265;53.200;6.080;2022-11-20T13:06:05;100825.06;;;19.76;36.76